Strona główna
METAR-TAF:

METAR-TAF

Lotnisko :

Aeroflex-Andover Airport

Andover, New Jersey, Stany Zjednoczone

Szerokość geograficzna: 41-00-32N, Długość geograficzna: 074-44-12W, wysokość: 177 m

Aktualna obserwacja pogody

Raport powstał 53 minut temu, godzina 08:54 UTC
Wiatr 8 kt od południowy zachód w porywach dochodzący do 14 kt, zmienny między południowo-południowy wschód i północny zachód
Temperatura -3°C
Wilgotność 54%
Ciśnienie 1009 hPa

METAR: K12N 280854Z AUTO 22008G14KT 150V320 M03/M11 A2979 RMK AO1 SLP099 T10331111 51001

czas: 04:47 (09:47 UTC)


TAF: brakujący

Obserwacja i prognoza pogody dla ponad 4000 lotnisk (raport METAR i TAF).

Dostępne stacje oznaczono żółtymi i czerwonymi punktami na mapie.

Najedź kursorem aby zobaczyć nazwę stacji.

Kliknij aby zobaczyć obserwacje i prognozy pogody.

Aby zmienić mapę: kliknij na zielony przycisk z czarnym krzyżykiem, aby powiększyć; na zielony przycisk z myślnikiem, aby pomniejszyć; na zielone strzałki, aby przejść do map sąsiednich.


METAR-TAF: